Time;durP1;ratioP1;P1;durP2;ratioP2;P2;SDS_P1;SDS_P2;PMS_P1;PMS_P2;Temp;Humidity;BMP_temperature;BMP_pressure;BME280_temperature;BME280_humidity;BME280_pressure;Samples;Min_cycle;Max_cycle;Signal;HPM_P1;HPM_P2
2022/03/10 00:00:06;;;;;;;45.40;24.50;;;5.10;99.90;;;;;;5131622;27;37798;-76
2022/03/10 00:02:32;;;;;;;40.97;22.43;;;5.00;99.90;;;;;;5128776;27;47279;-76
2022/03/10 00:04:58;;;;;;;49.33;24.70;;;4.90;99.90;;;;;;5144257;27;38763;-76
2022/03/10 00:07:24;;;;;;;47.83;24.57;;;4.80;99.90;;;;;;5143471;27;39730;-76
2022/03/10 00:09:50;;;;;;;44.20;24.57;;;4.70;99.90;;;;;;5124623;27;39917;-76
2022/03/10 00:12:17;;;;;;;44.37;24.87;;;4.60;99.90;;;;;;5145388;27;37661;-76
2022/03/10 00:14:44;;;;;;;47.43;26.03;;;4.50;99.90;;;;;;5143712;27;39667;-76
2022/03/10 00:17:10;;;;;;;43.27;24.13;;;4.30;99.90;;;;;;5123622;27;40247;-77
2022/03/10 00:19:36;;;;;;;48.03;25.50;;;4.20;99.90;;;;;;5143380;27;39983;-76
2022/03/10 00:22:02;;;;;;;46.63;24.60;;;4.10;99.90;;;;;;5118727;27;37076;-76
2022/03/10 00:24:28;;;;;;;44.27;24.97;;;4.10;99.90;;;;;;5137909;27;40093;-77
2022/03/10 00:26:57;;;;;;;45.87;24.30;;;4.00;99.90;;;;;;5135326;27;38399;-76
2022/03/10 00:29:23;;;;;;;41.83;23.10;;;3.90;99.90;;;;;;5136371;27;39091;-76
2022/03/10 00:31:49;;;;;;;45.43;25.63;;;3.80;99.90;;;;;;5143552;27;37286;-76
2022/03/10 00:34:16;;;;;;;40.70;23.77;;;3.70;99.90;;;;;;5139426;27;37932;-76
2022/03/10 00:36:42;;;;;;;48.33;25.73;;;3.60;99.90;;;;;;5129598;27;38491;-76
2022/03/10 00:39:08;;;;;;;42.77;24.10;;;3.50;99.90;;;;;;5129258;27;37260;-76
2022/03/10 00:41:35;;;;;;;43.70;24.00;;;3.40;99.90;;;;;;5125622;27;39986;-76
2022/03/10 00:44:01;;;;;;;51.27;26.13;;;3.30;99.90;;;;;;5127480;27;38610;-74
2022/03/10 00:46:27;;;;;;;45.33;25.97;;;3.20;99.90;;;;;;5130965;27;46899;-74
2022/03/10 00:48:53;;;;;;;47.57;25.67;;;3.10;99.90;;;;;;5140659;27;37875;-74
2022/03/10 00:51:19;;;;;;;42.13;25.23;;;3.10;99.90;;;;;;5142072;27;37195;-74
2022/03/10 00:53:45;;;;;;;48.37;25.00;;;3.00;99.90;;;;;;5127568;27;39672;-75
2022/03/10 00:56:11;;;;;;;46.77;26.23;;;3.00;99.90;;;;;;5131112;27;38730;-74
2022/03/10 00:58:37;;;;;;;43.07;25.50;;;2.90;99.90;;;;;;5143329;27;38392;-74
2022/03/10 01:01:03;;;;;;;52.73;27.20;;;2.80;99.90;;;;;;5117583;27;36065;-74
2022/03/10 01:03:29;;;;;;;46.37;26.67;;;2.80;99.90;;;;;;5127765;27;39774;-74
2022/03/10 01:05:58;;;;;;;45.70;24.97;;;2.70;99.90;;;;;;5124808;27;38104;-74
2022/03/10 01:08:28;;;;;;;48.43;24.00;;;2.70;99.90;;;;;;5133223;27;38105;-74
2022/03/10 01:10:54;;;;;;;44.33;26.37;;;2.70;99.90;;;;;;5130614;27;38659;-74
2022/03/10 01:13:20;;;;;;;58.33;25.20;;;2.60;99.90;;;;;;5137448;27;39133;-74
2022/03/10 01:15:47;;;;;;;45.60;26.40;;;2.60;99.90;;;;;;5140025;27;38560;-74
2022/03/10 01:18:16;;;;;;;43.87;25.30;;;2.50;99.90;;;;;;5121148;27;37985;-74
2022/03/10 01:20:42;;;;;;;45.07;25.83;;;2.40;99.90;;;;;;5134839;27;37544;-74
2022/03/10 01:23:14;;;;;;;52.40;28.27;;;2.30;99.90;;;;;;5138379;27;39511;-74
2022/03/10 01:25:43;;;;;;;50.95;26.98;;;2.30;99.90;;;;;;5141090;27;39330;-74
2022/03/10 01:28:09;;;;;;;46.97;27.37;;;2.30;99.90;;;;;;5135451;27;38066;-74
2022/03/10 01:30:35;;;;;;;51.23;26.77;;;2.20;99.90;;;;;;5142907;27;38057;-74
2022/03/10 01:33:01;;;;;;;50.00;27.43;;;2.30;99.90;;;;;;5141722;27;38689;-74
2022/03/10 01:35:27;;;;;;;42.53;25.77;;;2.20;99.90;;;;;;5141024;27;46892;-73
2022/03/10 01:37:53;;;;;;;48.73;26.17;;;2.30;99.90;;;;;;5140894;27;36797;-74
2022/03/10 01:40:20;;;;;;;47.37;26.57;;;2.30;99.90;;;;;;5143305;27;38037;-73
2022/03/10 01:42:47;;;;;;;47.23;27.57;;;2.20;99.90;;;;;;5139561;27;39567;-73
2022/03/10 01:45:14;;;;;;;48.97;26.57;;;2.20;99.90;;;;;;5141742;27;37928;-73
2022/03/10 01:47:41;;;;;;;46.17;26.37;;;2.10;99.90;;;;;;5143949;27;38962;-74
2022/03/10 01:50:11;;;;;;;48.03;26.00;;;2.10;99.90;;;;;;5142604;27;37615;-74
2022/03/10 01:52:40;;;;;;;46.57;27.03;;;2.00;99.90;;;;;;5136257;27;39458;-73
2022/03/10 01:55:07;;;;;;;47.47;26.33;;;1.90;99.90;;;;;;5141712;27;38502;-74
2022/03/10 01:57:36;;;;;;;49.33;28.53;;;1.90;99.90;;;;;;5142063;27;37489;-74
2022/03/10 02:00:04;;;;;;;47.10;27.60;;;1.80;99.90;;;;;;5142513;27;37273;-73
2022/03/10 02:02:31;;;;;;;50.73;27.60;;;1.80;99.90;;;;;;5154203;27;40201;-74
2022/03/10 02:04:57;;;;;;;50.10;28.30;;;1.80;99.90;;;;;;5138665;27;39073;-73
2022/03/10 02:10:16;;;;;;;54.10;28.60;;;1.80;99.90;;;;;;5140647;27;39008;-73
2022/03/10 02:12:53;;;;;;;52.77;27.53;;;1.80;99.90;;;;;;5140614;27;39872;-74
2022/03/10 02:18:08;;;;;;;52.30;27.33;;;1.70;99.90;;;;;;5144774;27;38290;-74
2022/03/10 02:20:36;;;;;;;50.37;27.93;;;1.60;99.90;;;;;;5138927;27;37509;-73
2022/03/10 02:23:07;;;;;;;52.50;28.00;;;1.60;99.90;;;;;;5138200;27;40743;-74
2022/03/10 02:25:35;;;;;;;53.80;28.37;;;1.50;99.90;;;;;;5143034;27;47748;-74
2022/03/10 02:28:01;;;;;;;51.30;28.93;;;1.50;99.90;;;;;;5140604;27;37943;-73
2022/03/10 02:30:30;;;;;;;50.33;28.10;;;1.50;99.90;;;;;;5146818;27;37758;-73
2022/03/10 02:32:57;;;;;;;55.30;27.83;;;1.50;99.90;;;;;;5150167;27;37159;-73
2022/03/10 02:35:23;;;;;;;48.50;27.07;;;1.40;99.90;;;;;;5139517;27;37303;-73
2022/03/10 02:37:50;;;;;;;53.87;28.43;;;1.40;99.90;;;;;;5150801;27;37913;-74
2022/03/10 02:40:16;;;;;;;53.53;27.47;;;1.30;99.90;;;;;;5148507;27;38281;-73
2022/03/10 02:42:42;;;;;;;59.07;29.83;;;1.30;99.90;;;;;;5126232;27;37425;-73
2022/03/10 02:45:09;;;;;;;53.30;28.20;;;1.30;99.90;;;;;;5140309;27;35730;-73
2022/03/10 02:47:35;;;;;;;57.53;29.37;;;1.30;99.90;;;;;;5143887;27;37630;-73
2022/03/10 02:50:04;;;;;;;58.60;30.20;;;1.30;99.90;;;;;;5146091;27;38815;-73
2022/03/10 02:52:33;;;;;;;55.40;28.67;;;1.30;99.90;;;;;;5127160;27;48514;-73
2022/03/10 02:54:59;;;;;;;54.83;29.97;;;1.30;99.90;;;;;;5139067;27;37119;-73
2022/03/10 02:57:27;;;;;;;54.13;29.70;;;1.30;99.90;;;;;;5145121;27;37461;-73
2022/03/10 02:59:53;;;;;;;56.30;30.23;;;1.30;99.90;;;;;;5139419;27;37366;-74
2022/03/10 03:02:19;;;;;;;54.47;29.40;;;1.30;99.90;;;;;;5135788;27;38390;-73
2022/03/10 03:04:45;;;;;;;51.33;28.03;;;1.30;99.90;;;;;;5144776;27;39434;-73
2022/03/10 03:07:12;;;;;;;50.27;27.43;;;1.30;99.90;;;;;;5147317;27;38089;-73
2022/03/10 03:09:38;;;;;;;55.83;30.23;;;1.20;99.90;;;;;;5146786;27;37847;-73
2022/03/10 03:12:04;;;;;;;62.67;30.73;;;1.20;99.90;;;;;;5139675;27;37801;-73
2022/03/10 03:14:30;;;;;;;58.00;29.30;;;1.20;99.90;;;;;;5144585;27;39100;-73
2022/03/10 03:16:57;;;;;;;55.10;29.83;;;1.20;99.90;;;;;;5142042;27;38218;-73
2022/03/10 03:19:24;;;;;;;57.13;29.60;;;1.20;99.90;;;;;;5143953;27;38663;-73
2022/03/10 03:21:51;;;;;;;55.10;29.27;;;1.10;99.90;;;;;;5130920;27;37737;-73
2022/03/10 03:24:17;;;;;;;54.17;29.50;;;1.10;99.90;;;;;;5136541;27;37166;-73
2022/03/10 03:26:46;;;;;;;50.10;28.73;;;1.00;99.90;;;;;;5141064;27;38135;-72
2022/03/10 03:29:13;;;;;;;55.30;30.00;;;1.00;99.90;;;;;;5136779;27;36937;-73
2022/03/10 03:31:42;;;;;;;53.57;29.10;;;1.00;99.90;;;;;;5143258;27;37567;-76
2022/03/10 03:34:11;;;;;;;64.47;30.73;;;1.00;99.90;;;;;;5135031;27;37243;-76
2022/03/10 03:36:41;;;;;;;58.53;28.30;;;1.00;99.90;;;;;;5133002;27;37015;-76
2022/03/10 03:39:08;;;;;;;54.30;28.10;;;0.90;99.90;;;;;;5138677;27;37385;-75
2022/03/10 03:41:34;;;;;;;51.87;28.57;;;0.80;99.90;;;;;;5140126;27;37837;-76
2022/03/10 03:44:00;;;;;;;58.53;31.13;;;0.80;99.90;;;;;;5137086;27;37077;-75
2022/03/10 03:46:27;;;;;;;59.17;31.10;;;0.70;99.90;;;;;;5134230;27;38322;-75
2022/03/10 03:48:56;;;;;;;58.00;30.60;;;0.70;99.90;;;;;;5133774;27;36229;-75
2022/03/10 03:51:26;;;;;;;58.30;30.57;;;0.70;99.90;;;;;;5135571;27;37581;-75
2022/03/10 03:53:52;;;;;;;55.40;29.27;;;0.70;99.90;;;;;;5133740;27;37638;-75
2022/03/10 03:56:18;;;;;;;59.40;31.37;;;0.60;99.90;;;;;;5142832;27;37607;-75
2022/03/10 03:58:45;;;;;;;54.80;30.47;;;0.60;99.90;;;;;;5137971;27;37345;-75
2022/03/10 04:01:11;;;;;;;56.40;29.40;;;0.60;99.90;;;;;;5141880;27;38875;-75
2022/03/10 04:03:37;;;;;;;56.27;31.13;;;0.50;99.90;;;;;;5139309;27;35690;-75
2022/03/10 04:06:04;;;;;;;58.30;29.77;;;0.50;99.90;;;;;;5140879;27;37991;-75
2022/03/10 04:08:30;;;;;;;62.40;32.10;;;0.50;99.90;;;;;;5136749;27;36412;-75
2022/03/10 04:10:56;;;;;;;58.27;30.70;;;0.50;99.90;;;;;;5131457;27;38599;-74
2022/03/10 04:13:23;;;;;;;55.13;29.40;;;0.50;99.90;;;;;;5139677;27;39367;-75
2022/03/10 04:15:51;;;;;;;59.87;31.13;;;0.50;99.90;;;;;;5137933;27;36984;-75
2022/03/10 04:18:20;;;;;;;59.37;31.43;;;0.50;99.90;;;;;;5137121;27;37777;-73
2022/03/10 04:20:48;;;;;;;56.57;31.57;;;0.60;99.90;;;;;;5146347;27;38827;-73
2022/03/10 04:23:14;;;;;;;65.10;33.43;;;0.60;99.90;;;;;;5142167;27;37193;-74
2022/03/10 04:25:41;;;;;;;64.77;33.53;;;0.60;99.90;;;;;;5131936;27;37017;-74
2022/03/10 04:28:07;;;;;;;65.97;34.00;;;0.70;99.90;;;;;;5129959;27;36349;-74
2022/03/10 04:30:34;;;;;;;67.30;34.03;;;0.70;99.90;;;;;;5156622;27;38901;-74
2022/03/10 04:33:01;;;;;;;67.20;32.80;;;0.70;99.90;;;;;;5144242;27;37191;-74
2022/03/10 04:35:28;;;;;;;67.83;33.10;;;0.70;99.90;;;;;;5139096;27;47308;-74
2022/03/10 04:37:55;;;;;;;70.47;35.97;;;0.80;99.90;;;;;;5147071;27;37579;-74
2022/03/10 04:40:22;;;;;;;61.47;33.87;;;0.80;99.90;;;;;;5144756;27;38587;-74
2022/03/10 04:42:50;;;;;;;65.17;33.63;;;1.00;99.90;;;;;;5143231;27;39159;-74
2022/03/10 04:45:16;;;;;;;62.47;32.80;;;1.20;99.90;;;;;;5143642;27;37662;-74
2022/03/10 04:47:42;;;;;;;65.37;35.07;;;1.20;99.90;;;;;;5146585;27;38403;-74
2022/03/10 04:50:11;;;;;;;64.53;33.73;;;1.30;99.90;;;;;;5143902;27;38698;-74
2022/03/10 04:52:39;;;;;;;66.57;35.37;;;1.30;99.90;;;;;;5142275;27;38255;-74
2022/03/10 04:55:06;;;;;;;67.57;36.00;;;1.30;99.90;;;;;;5144298;27;37937;-74
2022/03/10 04:57:34;;;;;;;67.97;34.20;;;1.20;99.90;;;;;;5145838;27;38425;-74
2022/03/10 05:00:00;;;;;;;66.97;32.43;;;1.20;99.90;;;;;;5145188;27;38827;-74
2022/03/10 05:02:26;;;;;;;67.00;34.40;;;1.10;99.90;;;;;;5147234;27;38235;-74
2022/03/10 05:04:52;;;;;;;71.33;35.60;;;1.10;99.90;;;;;;5145483;27;37656;-73
2022/03/10 05:07:18;;;;;;;70.70;36.03;;;1.10;99.90;;;;;;5147243;27;38360;-74
2022/03/10 05:09:44;;;;;;;66.67;35.07;;;1.00;99.90;;;;;;5141273;27;37980;-74
2022/03/10 05:12:10;;;;;;;70.83;35.53;;;1.20;99.90;;;;;;5136316;27;37414;-74
2022/03/10 05:14:36;;;;;;;67.07;37.43;;;1.20;99.90;;;;;;5145322;27;37794;-74
2022/03/10 05:17:02;;;;;;;70.67;37.27;;;1.40;99.90;;;;;;5145343;27;39352;-74
2022/03/10 05:19:28;;;;;;;68.73;38.30;;;1.60;99.90;;;;;;5142463;27;39064;-74
2022/03/10 05:21:54;;;;;;;69.77;37.07;;;1.80;99.90;;;;;;5142185;27;38652;-74
2022/03/10 05:24:21;;;;;;;68.97;37.83;;;1.90;99.90;;;;;;5143597;27;38017;-74
2022/03/10 05:26:47;;;;;;;74.07;38.27;;;2.00;99.90;;;;;;5144261;27;38046;-74
2022/03/10 05:29:13;;;;;;;70.40;37.40;;;2.00;99.90;;;;;;5144011;27;39784;-74
2022/03/10 05:31:39;;;;;;;68.70;35.90;;;2.20;99.90;;;;;;5146990;27;39224;-74
2022/03/10 05:34:07;;;;;;;62.37;35.47;;;2.30;99.90;;;;;;5146511;27;37764;-74
2022/03/10 05:36:34;;;;;;;63.57;35.47;;;2.40;99.90;;;;;;5147141;27;37470;-73
2022/03/10 05:39:01;;;;;;;64.37;35.23;;;2.30;99.90;;;;;;5142071;27;38639;-74
2022/03/10 05:41:27;;;;;;;66.67;35.97;;;2.20;99.90;;;;;;5146932;27;39838;-74
2022/03/10 05:43:53;;;;;;;61.37;35.77;;;2.20;99.90;;;;;;5136420;27;37098;-74
2022/03/10 05:46:19;;;;;;;67.73;36.40;;;2.30;99.90;;;;;;5137208;27;37481;-74
2022/03/10 05:48:45;;;;;;;60.30;33.83;;;2.30;99.90;;;;;;5145632;27;39510;-74
2022/03/10 05:51:11;;;;;;;63.40;35.33;;;2.40;99.90;;;;;;5133910;27;37190;-74
2022/03/10 05:53:37;;;;;;;60.90;34.43;;;2.60;99.90;;;;;;5136719;27;36742;-74
2022/03/10 05:56:03;;;;;;;62.17;36.07;;;2.50;99.90;;;;;;5135534;27;36313;-73
2022/03/10 05:58:29;;;;;;;62.13;34.07;;;2.40;99.90;;;;;;5134874;27;38777;-74
2022/03/10 06:00:56;;;;;;;61.57;33.97;;;2.40;99.90;;;;;;5146277;27;38178;-74
2022/03/10 06:03:22;;;;;;;62.83;33.90;;;2.40;99.90;;;;;;5146023;27;39795;-74
2022/03/10 06:05:48;;;;;;;61.03;34.47;;;2.40;99.90;;;;;;5148689;27;37588;-73
2022/03/10 06:08:14;;;;;;;63.00;34.40;;;2.30;99.90;;;;;;5136344;27;39390;-73
2022/03/10 06:10:40;;;;;;;60.07;32.70;;;2.40;99.90;;;;;;5141086;27;38434;-74
2022/03/10 06:13:06;;;;;;;61.53;33.17;;;2.30;99.90;;;;;;5147851;27;37432;-74
2022/03/10 06:15:33;;;;;;;49.47;30.47;;;2.20;99.90;;;;;;5146071;27;37387;-73
2022/03/10 06:17:59;;;;;;;60.10;33.47;;;2.20;99.90;;;;;;5141650;27;38934;-74
2022/03/10 06:20:25;;;;;;;60.80;32.83;;;2.10;99.90;;;;;;5147079;27;38585;-74
2022/03/10 06:22:52;;;;;;;60.83;33.80;;;2.10;99.90;;;;;;5141449;27;39371;-71
2022/03/10 06:25:18;;;;;;;55.47;31.87;;;2.20;99.90;;;;;;5149653;27;37273;-74
2022/03/10 06:27:44;;;;;;;57.70;32.93;;;2.30;99.90;;;;;;5143098;27;39037;-74
2022/03/10 06:30:11;;;;;;;56.43;32.83;;;2.30;99.90;;;;;;5140897;27;38198;-74
2022/03/10 06:32:37;;;;;;;59.97;33.00;;;2.30;99.90;;;;;;5154947;27;37446;-73
2022/03/10 06:35:04;;;;;;;56.63;32.17;;;2.40;99.90;;;;;;5123423;27;38597;-73
2022/03/10 06:37:30;;;;;;;53.80;31.03;;;2.50;99.90;;;;;;5142964;27;38777;-74
2022/03/10 06:39:56;;;;;;;56.13;31.90;;;2.50;99.90;;;;;;5145856;27;38469;-73
2022/03/10 06:42:22;;;;;;;54.30;31.53;;;2.50;99.90;;;;;;5145781;27;38414;-73
2022/03/10 06:44:49;;;;;;;59.10;33.50;;;2.50;99.90;;;;;;5136940;27;38439;-73
2022/03/10 06:47:15;;;;;;;53.27;30.20;;;2.50;99.90;;;;;;5138550;27;36695;-74
2022/03/10 06:49:42;;;;;;;56.40;31.90;;;2.60;99.90;;;;;;5136992;27;38157;-73
2022/03/10 06:52:08;;;;;;;52.90;31.40;;;2.60;99.90;;;;;;5136789;27;37838;-73
2022/03/10 06:54:35;;;;;;;57.47;33.93;;;2.60;99.90;;;;;;5142646;27;39727;-73
2022/03/10 06:57:01;;;;;;;58.30;33.17;;;2.70;99.90;;;;;;5141504;27;38857;-73
2022/03/10 06:59:27;;;;;;;52.23;30.43;;;2.70;99.90;;;;;;5134523;27;38624;-73
2022/03/10 07:01:54;;;;;;;53.77;32.10;;;2.80;99.90;;;;;;5148478;27;38008;-73
2022/03/10 07:04:20;;;;;;;53.77;31.37;;;2.70;99.90;;;;;;5141277;27;37433;-73
2022/03/10 07:06:46;;;;;;;49.73;30.47;;;2.70;99.90;;;;;;5142867;27;38423;-73
2022/03/10 07:09:12;;;;;;;56.03;32.20;;;2.80;99.90;;;;;;5142213;27;39299;-73
2022/03/10 07:11:38;;;;;;;51.30;32.07;;;2.80;99.90;;;;;;5136013;27;38616;-73
2022/03/10 07:14:04;;;;;;;57.90;33.70;;;2.90;99.90;;;;;;5143769;27;37396;-73
2022/03/10 07:16:31;;;;;;;55.60;32.40;;;3.00;99.90;;;;;;5141836;27;39479;-73
2022/03/10 07:18:57;;;;;;;58.13;33.00;;;3.00;99.90;;;;;;5135937;27;38723;-73
2022/03/10 07:21:23;;;;;;;51.97;30.73;;;3.00;99.90;;;;;;5141718;27;38293;-73
2022/03/10 07:23:50;;;;;;;48.63;30.73;;;3.00;99.90;;;;;;5137722;27;38293;-73
2022/03/10 07:26:16;;;;;;;54.93;32.30;;;3.00;99.90;;;;;;5135256;27;38961;-73
2022/03/10 07:28:43;;;;;;;52.50;32.00;;;3.10;99.90;;;;;;5134196;27;38854;-73
2022/03/10 07:31:09;;;;;;;65.17;31.10;;;3.10;99.90;;;;;;5133781;27;38552;-73
2022/03/10 07:33:35;;;;;;;52.47;30.53;;;3.30;99.90;;;;;;5139204;27;37664;-74
2022/03/10 07:36:02;;;;;;;54.30;30.87;;;3.30;99.90;;;;;;5140048;27;39891;-73
2022/03/10 07:38:28;;;;;;;53.17;31.47;;;3.30;99.90;;;;;;5133666;27;39297;-73
2022/03/10 07:40:56;;;;;;;50.37;30.00;;;3.40;99.90;;;;;;5134254;27;38522;-74
2022/03/10 07:43:23;;;;;;;52.73;30.80;;;3.50;99.90;;;;;;5140147;27;38712;-73
2022/03/10 07:45:50;;;;;;;50.47;30.47;;;3.60;99.90;;;;;;5135001;27;39616;-74
2022/03/10 07:48:17;;;;;;;55.63;32.03;;;3.70;99.90;;;;;;5139061;27;38763;-73
2022/03/10 07:50:44;;;;;;;51.20;31.47;;;3.80;99.90;;;;;;5130962;27;38756;-74
2022/03/10 07:53:10;;;;;;;55.30;31.97;;;3.80;99.90;;;;;;5131925;27;37534;-74
2022/03/10 07:55:36;;;;;;;50.87;30.00;;;3.80;99.90;;;;;;5138282;27;38697;-74
2022/03/10 07:58:03;;;;;;;52.33;31.20;;;3.90;99.90;;;;;;5139964;27;39247;-74
2022/03/10 08:00:29;;;;;;;52.93;29.20;;;4.00;99.90;;;;;;5142690;27;38813;-74
2022/03/10 08:02:55;;;;;;;57.57;31.40;;;4.10;99.90;;;;;;5127950;27;37980;-73
2022/03/10 08:05:21;;;;;;;53.40;29.93;;;4.20;99.90;;;;;;5134940;27;38848;-74
2022/03/10 08:07:47;;;;;;;51.17;30.37;;;4.20;99.90;;;;;;5133278;27;38401;-74
2022/03/10 08:10:13;;;;;;;54.97;30.97;;;4.40;99.90;;;;;;5134876;27;38774;-73
2022/03/10 08:12:39;;;;;;;53.40;31.77;;;4.50;99.90;;;;;;5135867;27;37916;-73
2022/03/10 08:15:06;;;;;;;46.43;29.03;;;4.60;99.90;;;;;;5136981;27;40218;-74
2022/03/10 08:17:32;;;;;;;51.67;30.47;;;4.70;99.90;;;;;;5138271;27;38199;-74
2022/03/10 08:19:58;;;;;;;50.87;30.37;;;4.80;99.90;;;;;;5144190;27;37844;-74
2022/03/10 08:22:24;;;;;;;49.77;29.00;;;4.90;99.90;;;;;;5144265;27;37357;-73
2022/03/10 08:24:51;;;;;;;48.50;28.90;;;5.20;99.90;;;;;;5140275;27;39999;-74
2022/03/10 08:27:17;;;;;;;46.27;27.90;;;5.40;99.90;;;;;;5142675;27;39791;-74
2022/03/10 08:29:45;;;;;;;51.33;29.43;;;5.50;99.90;;;;;;5136716;27;40499;-74
2022/03/10 08:32:12;;;;;;;46.40;29.43;;;5.60;99.90;;;;;;5144201;27;37497;-73
2022/03/10 08:34:39;;;;;;;49.63;28.20;;;5.60;99.90;;;;;;5143975;27;39905;-73
2022/03/10 08:37:05;;;;;;;48.13;27.00;;;5.60;99.90;;;;;;5134707;27;39770;-73
2022/03/10 08:39:31;;;;;;;44.33;27.73;;;5.80;99.90;;;;;;5147141;27;37838;-74
2022/03/10 08:41:59;;;;;;;45.80;28.77;;;6.00;99.90;;;;;;5146230;27;37323;-74
2022/03/10 08:44:26;;;;;;;43.47;27.00;;;6.10;99.90;;;;;;5144606;27;39651;-74
2022/03/10 08:46:52;;;;;;;47.47;29.63;;;6.20;99.90;;;;;;5146348;27;38758;-73
2022/03/10 08:49:18;;;;;;;46.30;27.40;;;6.30;99.90;;;;;;5140035;27;36945;-74
2022/03/10 08:51:48;;;;;;;44.97;28.30;;;6.40;99.90;;;;;;5131319;27;39298;-74
2022/03/10 08:54:14;;;;;;;46.07;28.40;;;6.50;99.90;;;;;;5136770;27;39279;-74
2022/03/10 08:56:40;;;;;;;45.40;28.00;;;6.50;99.90;;;;;;5146305;27;39131;-74
2022/03/10 08:59:07;;;;;;;46.33;28.77;;;6.60;99.90;;;;;;5130598;27;38143;-74
2022/03/10 09:01:33;;;;;;;49.27;28.33;;;6.80;99.90;;;;;;5138256;27;38204;-74
2022/03/10 09:03:59;;;;;;;48.07;28.17;;;6.90;99.90;;;;;;5140214;27;38749;-74
2022/03/10 09:06:25;;;;;;;50.67;27.97;;;7.00;99.90;;;;;;5144509;27;37932;-74
2022/03/10 09:08:51;;;;;;;48.23;27.73;;;7.10;99.90;;;;;;5147805;27;38651;-74
2022/03/10 09:11:18;;;;;;;43.60;26.87;;;7.20;99.90;;;;;;5144128;27;37340;-74
2022/03/10 09:13:48;;;;;;;43.33;27.00;;;7.30;99.90;;;;;;5131253;27;38949;-74
2022/03/10 09:16:21;;;;;;;43.63;28.03;;;7.40;99.90;;;;;;5141002;27;38431;-75
2022/03/10 09:18:48;;;;;;;44.97;27.27;;;7.50;99.90;;;;;;5142438;27;37398;-74
2022/03/10 09:21:16;;;;;;;46.90;27.17;;;7.60;99.90;;;;;;5136561;27;38868;-74
2022/03/10 09:23:42;;;;;;;44.87;27.27;;;7.70;99.90;;;;;;5141273;27;38534;-74
2022/03/10 09:26:08;;;;;;;44.30;25.37;;;7.90;99.90;;;;;;5131775;27;39359;-73
2022/03/10 09:28:35;;;;;;;43.97;26.37;;;8.00;99.90;;;;;;5140464;27;38072;-74
2022/03/10 09:31:01;;;;;;;41.90;26.87;;;8.10;99.90;;;;;;5132821;27;39502;-74
2022/03/10 09:33:27;;;;;;;47.37;27.80;;;8.20;99.90;;;;;;5143327;27;48986;-74
2022/03/10 09:35:53;;;;;;;41.20;26.00;;;8.30;99.90;;;;;;5136192;27;39508;-74
2022/03/10 09:38:19;;;;;;;47.00;28.43;;;8.40;99.90;;;;;;5136212;27;39086;-74
2022/03/10 09:40:47;;;;;;;40.30;25.07;;;8.50;99.90;;;;;;5142521;27;38573;-74
2022/03/10 09:43:17;;;;;;;43.67;26.63;;;8.60;99.90;;;;;;5136611;27;20054;-74
2022/03/10 09:45:46;;;;;;;47.97;27.10;;;8.70;99.90;;;;;;5142551;27;38324;-74
2022/03/10 09:48:16;;;;;;;44.53;26.33;;;8.80;99.90;;;;;;5142438;27;38902;-74
2022/03/10 09:50:42;;;;;;;44.87;27.73;;;8.90;99.90;;;;;;5135575;27;37578;-75
2022/03/10 09:53:08;;;;;;;43.47;27.37;;;9.00;99.90;;;;;;5140974;27;38068;-76
2022/03/10 09:55:38;;;;;;;46.07;28.90;;;9.10;99.90;;;;;;5138541;27;37914;-75
2022/03/10 09:58:06;;;;;;;43.03;27.87;;;9.20;99.90;;;;;;5137763;27;36912;-74
2022/03/10 10:00:32;;;;;;;50.23;27.57;;;9.40;99.90;;;;;;5141484;27;36839;-74
2022/03/10 10:02:58;;;;;;;45.13;26.67;;;9.50;99.90;;;;;;5142544;27;37491;-73
2022/03/10 10:05:32;;;;;;;41.43;26.70;;;9.70;99.90;;;;;;5142160;27;38787;-74
2022/03/10 10:08:03;;;;;;;40.37;25.57;;;9.90;99.90;;;;;;5147849;27;38757;-74
2022/03/10 10:10:34;;;;;;;40.53;25.87;;;10.10;99.90;;;;;;5139540;27;47575;-74
2022/03/10 10:13:05;;;;;;;43.75;25.63;;;10.30;99.90;;;;;;5135625;27;38096;-74
2022/03/10 10:15:38;;;;;;;39.03;25.47;;;10.40;99.90;;;;;;5144786;27;50173;-74
2022/03/10 10:18:08;;;;;;;40.88;25.92;;;10.60;99.90;;;;;;5109389;27;39453;-74
2022/03/10 10:20:48;;;;;;;38.95;26.67;;;10.70;99.90;;;;;;5146255;27;37529;-74
2022/03/10 10:23:37;;;;;;;41.08;25.27;;;10.90;99.90;;;;;;5143672;27;38454;-75
2022/03/10 10:26:09;;;;;;;38.20;24.77;;;11.00;99.90;;;;;;5135646;27;39113;-74
2022/03/10 10:28:42;;;;;;;36.83;24.73;;;11.10;99.90;;;;;;5134932;27;38015;-74
2022/03/10 10:31:12;;;;;;;40.63;25.33;;;11.20;99.90;;;;;;5146737;27;37502;-74
2022/03/10 10:34:02;;;;;;;34.83;23.92;;;11.40;99.90;;;;;;5130565;27;37942;-74
2022/03/10 10:36:30;;;;;;;37.88;23.83;;;11.70;99.90;;;;;;5151957;27;47162;-76
2022/03/10 10:39:11;;;;;;;37.28;24.73;;;11.80;99.90;;;;;;5151650;27;37514;-74
2022/03/10 10:41:45;;;;;;;35.17;24.45;;;11.90;99.90;;;;;;5138207;27;47666;-75
2022/03/10 10:44:20;;;;;;;41.95;23.20;;;12.00;99.90;;;;;;5140584;27;39828;-74
2022/03/10 10:46:49;;;;;;;37.40;23.70;;;12.10;99.90;;;;;;5141625;27;37200;-74
2022/03/10 10:49:21;;;;;;;44.30;24.50;;;12.10;99.90;;;;;;5149199;27;37959;-77
2022/03/10 10:51:52;;;;;;;34.65;24.08;;;12.30;99.90;;;;;;5149106;27;37516;-74
2022/03/10 10:54:19;;;;;;;33.35;21.48;;;12.40;99.90;;;;;;5150672;27;38644;-77
2022/03/10 10:56:49;;;;;;;35.92;23.90;;;12.50;99.90;;;;;;5145389;27;37261;-77
2022/03/10 10:59:37;;;;;;;34.95;22.63;;;12.60;99.90;;;;;;5145321;27;38629;-76
2022/03/10 11:02:17;;;;;;;33.15;21.83;;;12.80;99.90;;;;;;5128506;27;36824;-75
2022/03/10 11:04:46;;;;;;;36.45;22.83;;;12.90;99.90;;;;;;5135224;27;37670;-76
2022/03/10 11:07:14;;;;;;;30.83;21.55;;;13.00;99.90;;;;;;5146809;27;38406;-76
2022/03/10 11:09:42;;;;;;;38.95;21.83;;;13.10;99.90;;;;;;5144324;27;37416;-76
2022/03/10 11:12:10;;;;;;;33.25;22.20;;;13.20;99.90;;;;;;5147846;27;37461;-76
2022/03/10 11:14:37;;;;;;;33.20;22.08;;;13.30;99.90;;;;;;5146740;27;38437;-77
2022/03/10 11:17:04;;;;;;;33.25;22.35;;;13.40;99.90;;;;;;5148250;27;38327;-76
2022/03/10 11:19:35;;;;;;;34.25;21.40;;;13.60;99.90;;;;;;5140352;27;36641;-76
2022/03/10 11:22:16;;;;;;;30.45;21.27;;;13.90;99.90;;;;;;5150906;27;37552;-77
2022/03/10 11:25:15;;;;;;;35.92;21.48;;;14.10;99.90;;;;;;5140852;27;37706;-76
2022/03/10 11:28:03;;;;;;;31.35;21.42;;;14.20;99.90;;;;;;5149680;27;48623;-77
2022/03/10 11:30:33;;;;;;;33.92;20.33;;;14.10;99.90;;;;;;5134611;27;47195;-77
2022/03/10 11:33:13;;;;;;;34.00;21.10;;;14.30;99.90;;;;;;5150710;27;37590;-77
2022/03/10 11:35:45;;;;;;;30.58;20.85;;;14.40;99.90;;;;;;5154888;27;47578;-77
2022/03/10 11:38:12;;;;;;;29.33;19.08;;;14.60;99.90;;;;;;5121456;27;38249;-75
2022/03/10 11:40:44;;;;;;;34.67;19.88;;;14.70;99.90;;;;;;5139698;27;36674;-80
2022/03/10 11:43:16;;;;;;;29.23;19.27;;;14.70;99.90;;;;;;5143804;27;36149;-75
2022/03/10 11:45:44;;;;;;;32.13;19.38;;;14.60;99.90;;;;;;5139431;27;38864;-77
2022/03/10 11:48:25;;;;;;;31.73;20.33;;;14.80;99.90;;;;;;5145755;27;37546;-77
2022/03/10 11:50:52;;;;;;;26.70;18.42;;;14.90;99.90;;;;;;5143201;27;37473;-76
2022/03/10 11:53:18;;;;;;;27.90;18.15;;;15.00;99.90;;;;;;5142831;27;38112;-78
2022/03/10 11:55:51;;;;;;;29.00;17.85;;;15.20;99.90;;;;;;5139106;27;37596;-76
2022/03/10 11:58:36;;;;;;;29.27;17.85;;;15.40;99.90;;;;;;5140957;27;38548;-76
2022/03/10 12:01:03;;;;;;;27.60;18.98;;;15.20;99.90;;;;;;5141193;27;37144;-75
2022/03/10 12:03:38;;;;;;;31.05;17.33;;;15.30;99.90;;;;;;5138643;27;36404;-77
2022/03/10 12:06:07;;;;;;;26.73;17.30;;;15.30;99.90;;;;;;5140065;27;37552;-77
2022/03/10 12:08:42;;;;;;;25.90;15.52;;;15.30;99.90;;;;;;5137088;27;37580;-76
2022/03/10 12:11:14;;;;;;;23.15;14.93;;;15.60;99.90;;;;;;5145039;27;37776;-78
2022/03/10 12:13:44;;;;;;;23.40;15.27;;;15.30;99.90;;;;;;5144602;27;38261;-77
2022/03/10 12:16:22;;;;;;;26.63;16.65;;;15.40;99.90;;;;;;5148189;27;38545;-78
2022/03/10 12:18:48;;;;;;;26.67;15.88;;;15.50;99.90;;;;;;5144090;27;37755;-78
2022/03/10 12:21:27;;;;;;;25.33;15.20;;;15.20;99.90;;;;;;5146830;27;37958;-77
2022/03/10 12:23:53;;;;;;;21.20;13.88;;;15.30;99.90;;;;;;5140658;27;37818;-78
2022/03/10 12:26:33;;;;;;;23.75;15.80;;;15.50;99.90;;;;;;5148039;27;38966;-78
2022/03/10 12:29:21;;;;;;;23.67;15.27;;;15.70;99.90;;;;;;5136500;27;37275;-76
2022/03/10 12:31:52;;;;;;;26.98;16.70;;;15.80;99.90;;;;;;5142672;27;46587;-77
2022/03/10 12:34:25;;;;;;;24.33;15.13;;;15.70;99.90;;;;;;5140034;27;36651;-77
2022/03/10 12:36:53;;;;;;;23.05;15.15;;;15.70;99.90;;;;;;5146417;27;40444;-78
2022/03/10 12:39:22;;;;;;;24.83;14.88;;;15.70;99.90;;;;;;5138823;27;37246;-78
2022/03/10 12:41:54;;;;;;;31.45;15.63;;;15.70;99.90;;;;;;5139504;27;37145;-76
2022/03/10 12:44:22;;;;;;;24.90;14.90;;;15.70;99.90;;;;;;5122488;27;36576;-77